Time,TemperatureF,DewpointF,PressureIn,WindDirection,WindDirectionDegrees,WindSpeedMPH,WindSpeedGustMPH,Humidity,HourlyPrecipIn,Conditions,Clouds,dailyrainin,SoftwareType,DateUTC
2013-04-27 00:07:00,55.2,40.2,30.03,NE,45,0.0,-999.0,57,-99.99,,,0.00,Acu-Link.com,2013-04-27 04:07:00,
2013-04-27 00:22:00,54.9,37.6,30.04,West,270,0.0,-999.0,52,-99.99,,,0.00,Acu-Link.com,2013-04-27 04:22:00,
2013-04-27 00:37:00,54.9,36.6,30.04,NE,45,0.0,-999.0,50,-99.99,,,0.00,Acu-Link.com,2013-04-27 04:37:00,
2013-04-27 00:52:00,54.9,37.1,30.05,SSW,202,0.0,-999.0,51,-99.99,,,0.00,Acu-Link.com,2013-04-27 04:52:00,
2013-04-27 01:07:00,54.5,36.2,30.05,SW,225,0.0,-999.0,50,-99.99,,,0.00,Acu-Link.com,2013-04-27 05:07:00,
2013-04-27 01:23:00,54.1,37.8,30.05,ESE,112,0.0,-999.0,54,-99.99,,,0.00,Acu-Link.com,2013-04-27 05:23:00,
2013-04-27 01:38:00,54.1,37.4,30.03,East,90,0.0,-999.0,53,-99.99,,,0.00,Acu-Link.com,2013-04-27 05:38:00,
2013-04-27 01:53:00,54.7,38.4,30.03,West,270,0.0,-999.0,54,-99.99,,,0.00,Acu-Link.com,2013-04-27 05:53:00,
2013-04-27 02:09:00,54.3,41.1,30.03,South,180,0.0,-999.0,61,-99.99,,,0.00,Acu-Link.com,2013-04-27 06:09:00,
2013-04-27 02:24:00,54.5,37.7,30.02,East,90,0.0,-999.0,53,-99.99,,,0.00,Acu-Link.com,2013-04-27 06:24:00,
2013-04-27 02:39:00,54.1,38.8,30.02,SW,225,0.0,-999.0,56,-99.99,,,0.00,Acu-Link.com,2013-04-27 06:39:00,
2013-04-27 02:55:00,54.0,40.0,30.02,NNW,337,0.0,-999.0,59,-99.99,,,0.00,Acu-Link.com,2013-04-27 06:55:00,
2013-04-27 03:10:00,54.0,37.7,30.02,WNW,292,0.0,-999.0,54,-99.99,,,0.00,Acu-Link.com,2013-04-27 07:10:00,
2013-04-27 03:25:00,53.8,39.4,30.01,ESE,112,0.0,-999.0,58,-99.99,,,0.00,Acu-Link.com,2013-04-27 07:25:00,
2013-04-27 03:40:00,53.6,40.5,30.01,South,180,0.0,-999.0,61,-99.99,,,0.00,Acu-Link.com,2013-04-27 07:40:00,
2013-04-27 03:56:00,53.4,39.0,30.01,NNE,22,0.0,-999.0,58,-99.99,,,0.00,Acu-Link.com,2013-04-27 07:56:00,
2013-04-27 04:11:00,53.2,38.8,30.01,SW,225,0.0,-999.0,58,-99.99,,,0.00,Acu-Link.com,2013-04-27 08:11:00,
2013-04-27 04:26:00,53.4,38.6,30.01,SSW,202,1.7,-999.0,57,-99.99,,,0.00,Acu-Link.com,2013-04-27 08:26:00,
2013-04-27 04:41:00,53.4,38.6,30.01,NNE,22,0.0,-999.0,57,-99.99,,,0.00,Acu-Link.com,2013-04-27 08:41:00,
2013-04-27 04:57:00,53.4,38.6,30.00,NNE,22,0.0,-999.0,57,-99.99,,,0.00,Acu-Link.com,2013-04-27 08:57:00,
2013-04-27 05:12:00,52.7,39.2,30.00,West,270,0.0,-999.0,60,-99.99,,,0.00,Acu-Link.com,2013-04-27 09:12:00,
2013-04-27 05:27:00,52.7,39.2,30.00,West,270,0.0,-999.0,60,-99.99,,,0.00,Acu-Link.com,2013-04-27 09:27:00,
2013-04-27 05:43:00,52.7,41.3,30.00,East,90,0.0,-999.0,65,-99.99,,,0.00,Acu-Link.com,2013-04-27 09:43:00,
2013-04-27 05:58:00,52.3,41.3,30.00,East,90,0.0,-999.0,66,-99.99,,,0.00,Acu-Link.com,2013-04-27 09:58:00,
2013-04-27 06:13:00,51.6,42.5,29.99,WSW,247,0.0,-999.0,71,-99.99,,,0.00,Acu-Link.com,2013-04-27 10:13:00,
2013-04-27 06:28:00,50.7,42.0,30.00,WSW,247,0.0,-999.0,72,-99.99,,,0.00,Acu-Link.com,2013-04-27 10:28:00,
2013-04-27 06:44:00,50.5,41.8,30.00,South,180,0.0,-999.0,72,-99.99,,,0.00,Acu-Link.com,2013-04-27 10:44:00,
2013-04-27 06:59:00,50.4,42.4,30.01,WSW,247,0.0,-999.0,74,-99.99,,,0.00,Acu-Link.com,2013-04-27 10:59:00,
2013-04-27 07:14:00,50.2,42.9,30.01,WSW,247,1.1,-999.0,76,-99.99,,,0.00,Acu-Link.com,2013-04-27 11:14:00,
2013-04-27 07:29:00,50.0,43.1,30.01,WSW,247,0.0,-999.0,77,-99.99,,,0.00,Acu-Link.com,2013-04-27 11:29:00,
2013-04-27 07:44:00,50.0,43.7,30.01,NNE,22,0.0,-999.0,79,-99.99,,,0.00,Acu-Link.com,2013-04-27 11:44:00,
2013-04-27 07:59:00,50.2,44.6,30.01,East,90,1.7,-999.0,81,-99.99,,,0.00,Acu-Link.com,2013-04-27 11:59:00,
2013-04-27 08:15:00,50.4,45.1,30.01,SSW,202,1.1,-999.0,82,-99.99,,,0.00,Acu-Link.com,2013-04-27 12:15:00,
2013-04-27 08:30:00,50.4,44.5,30.02,NE,45,0.0,-999.0,80,-99.99,,,0.00,Acu-Link.com,2013-04-27 12:30:00,
2013-04-27 08:45:00,50.5,44.6,30.03,WNW,292,0.0,-999.0,80,-99.99,,,0.00,Acu-Link.com,2013-04-27 12:45:00,
2013-04-27 09:01:00,50.7,45.1,30.02,East,90,0.0,-999.0,81,-99.99,,,0.00,Acu-Link.com,2013-04-27 13:01:00,
2013-04-27 09:16:00,51.4,44.4,30.03,NW,315,0.0,-999.0,77,-99.99,,,0.00,Acu-Link.com,2013-04-27 13:16:00,
2013-04-27 09:31:00,52.2,45.2,30.02,NE,45,0.0,-999.0,77,-99.99,,,0.00,Acu-Link.com,2013-04-27 13:31:00,
2013-04-27 10:01:00,53.1,46.1,30.02,WSW,247,0.0,-999.0,77,-99.99,,,0.00,Acu-Link.com,2013-04-27 14:01:00,
2013-04-27 10:17:00,53.6,46.2,30.02,West,270,0.0,-999.0,76,-99.99,,,0.00,Acu-Link.com,2013-04-27 14:17:00,
2013-04-27 10:32:00,54.1,45.6,30.02,West,270,0.0,-999.0,73,-99.99,,,0.00,Acu-Link.com,2013-04-27 14:32:00,
2013-04-27 10:47:00,54.7,45.9,30.02,SSW,202,1.1,-999.0,72,-99.99,,,0.00,Acu-Link.com,2013-04-27 14:47:00,
2013-04-27 11:03:00,54.9,46.0,30.02,SSW,202,1.1,-999.0,72,-99.99,,,0.00,Acu-Link.com,2013-04-27 15:03:00,
2013-04-27 11:18:00,55.0,45.8,30.02,WNW,292,0.0,-999.0,71,-99.99,,,0.00,Acu-Link.com,2013-04-27 15:18:00,
2013-04-27 11:33:00,55.2,46.0,30.03,West,270,0.0,-999.0,71,-99.99,,,0.00,Acu-Link.com,2013-04-27 15:33:00,
2013-04-27 11:49:00,55.8,46.2,30.02,NE,45,0.0,-999.0,70,-99.99,,,0.00,Acu-Link.com,2013-04-27 15:49:00,
2013-04-27 12:04:00,56.5,46.5,30.02,SSW,202,1.1,-999.0,69,-99.99,,,0.00,Acu-Link.com,2013-04-27 16:04:00,
2013-04-27 12:19:00,56.7,46.6,30.02,SW,225,1.1,-999.0,69,-99.99,,,0.00,Acu-Link.com,2013-04-27 16:19:00,
2013-04-27 12:34:00,56.1,46.1,30.02,WSW,247,1.7,-999.0,69,-99.99,,,0.00,Acu-Link.com,2013-04-27 16:34:00,
2013-04-27 12:50:00,55.4,46.9,30.02,ENE,67,0.0,-999.0,73,-99.99,,,0.00,Acu-Link.com,2013-04-27 16:50:00,
2013-04-27 13:05:00,54.9,48.2,30.03,SW,225,0.0,-999.0,78,-99.99,,,0.00,Acu-Link.com,2013-04-27 17:05:00,
2013-04-27 13:20:00,53.2,47.5,30.03,SSW,202,0.0,-999.0,81,-99.99,,,0.01,Acu-Link.com,2013-04-27 17:20:00,
2013-04-27 13:35:00,52.7,49.5,30.03,SSW,202,0.0,-999.0,89,-99.99,,,0.04,Acu-Link.com,2013-04-27 17:35:00,
2013-04-27 13:51:00,52.7,49.8,30.03,ENE,67,0.0,-999.0,90,-99.99,,,0.15,Acu-Link.com,2013-04-27 17:51:00,
2013-04-27 14:06:00,52.3,49.5,30.04,SW,225,1.7,-999.0,90,-99.99,,,0.19,Acu-Link.com,2013-04-27 18:06:00,
2013-04-27 14:21:00,52.3,49.5,30.02,ENE,67,0.0,-999.0,90,-99.99,,,0.22,Acu-Link.com,2013-04-27 18:21:00,
2013-04-27 14:36:00,52.2,49.4,30.02,SSW,202,0.0,-999.0,90,-99.99,,,0.25,Acu-Link.com,2013-04-27 18:36:00,
2013-04-27 14:51:00,52.0,49.2,30.02,NNE,22,0.0,-999.0,90,-99.99,,,0.36,Acu-Link.com,2013-04-27 18:51:00,
2013-04-27 15:07:00,51.8,49.0,30.02,East,90,2.2,-999.0,90,-99.99,,,0.42,Acu-Link.com,2013-04-27 19:07:00,
2013-04-27 15:22:00,51.8,49.3,30.01,East,90,2.2,-999.0,91,-99.99,,,0.46,Acu-Link.com,2013-04-27 19:22:00,
2013-04-27 15:37:00,51.8,49.3,30.00,East,90,2.7,-999.0,91,-99.99,,,0.50,Acu-Link.com,2013-04-27 19:37:00,
2013-04-27 15:52:00,51.6,49.1,29.99,ESE,112,2.2,-999.0,91,-99.99,,,0.54,Acu-Link.com,2013-04-27 19:52:00,
2013-04-27 16:07:00,51.8,49.3,29.98,East,90,1.1,-999.0,91,-99.99,,,0.54,Acu-Link.com,2013-04-27 20:07:00,
2013-04-27 16:23:00,52.0,49.5,30.00,ENE,67,1.7,-999.0,91,-99.99,,,0.55,Acu-Link.com,2013-04-27 20:23:00,
2013-04-27 16:38:00,52.0,49.5,30.00,West,270,0.0,-999.0,91,-99.99,,,0.55,Acu-Link.com,2013-04-27 20:38:00,
2013-04-27 16:54:00,52.0,49.5,29.99,East,90,2.2,-999.0,91,-99.99,,,0.58,Acu-Link.com,2013-04-27 20:54:00,
2013-04-27 17:09:00,51.8,49.3,29.97,NE,45,0.0,-999.0,91,-99.99,,,0.61,Acu-Link.com,2013-04-27 21:09:00,
2013-04-27 17:24:00,51.6,49.1,29.98,East,90,0.0,-999.0,91,-99.99,,,0.64,Acu-Link.com,2013-04-27 21:24:00,
2013-04-27 17:39:00,51.6,49.1,29.96,NE,45,0.0,-999.0,91,-99.99,,,0.69,Acu-Link.com,2013-04-27 21:39:00,
2013-04-27 17:55:00,51.8,49.3,29.97,NE,45,1.1,-999.0,91,-99.99,,,0.70,Acu-Link.com,2013-04-27 21:55:00,
2013-04-27 18:10:00,51.8,49.3,29.97,NE,45,1.1,-999.0,91,-99.99,,,0.71,Acu-Link.com,2013-04-27 22:10:00,
2013-04-27 18:25:00,51.4,48.9,29.98,ESE,112,2.2,-999.0,91,-99.99,,,0.72,Acu-Link.com,2013-04-27 22:25:00,
2013-04-27 18:40:00,51.4,48.9,29.98,ENE,67,0.0,-999.0,91,-99.99,,,0.74,Acu-Link.com,2013-04-27 22:40:00,
2013-04-27 18:55:00,51.4,48.9,29.97,West,270,0.0,-999.0,91,-99.99,,,0.75,Acu-Link.com,2013-04-27 22:55:00,
2013-04-27 19:11:00,51.3,48.8,29.98,SSW,202,0.0,-999.0,91,-99.99,,,0.76,Acu-Link.com,2013-04-27 23:11:00,
2013-04-27 19:26:00,51.1,48.9,29.97,SSW,202,0.0,-999.0,92,-99.99,,,0.79,Acu-Link.com,2013-04-27 23:26:00,
2013-04-27 19:42:00,50.9,48.7,29.95,West,270,0.0,-999.0,92,-99.99,,,0.89,Acu-Link.com,2013-04-27 23:42:00,
2013-04-27 19:57:00,50.5,48.3,29.96,SW,225,1.1,-999.0,92,-99.99,,,0.92,Acu-Link.com,2013-04-27 23:57:00,
2013-04-27 20:12:00,50.5,48.3,29.95,South,180,0.0,-999.0,92,-99.99,,,0.94,Acu-Link.com,2013-04-28 00:12:00,
2013-04-27 20:27:00,50.2,48.0,29.95,West,270,0.0,-999.0,92,-99.99,,,0.94,Acu-Link.com,2013-04-28 00:27:00,
2013-04-27 20:43:00,50.0,47.8,29.94,ENE,67,0.0,-999.0,92,-99.99,,,0.94,Acu-Link.com,2013-04-28 00:43:00,
2013-04-27 20:58:00,50.0,47.8,29.95,WNW,292,0.0,-999.0,92,-99.99,,,0.94,Acu-Link.com,2013-04-28 00:58:00,
2013-04-27 21:13:00,50.0,47.8,29.94,WNW,292,0.0,-999.0,92,-99.99,,,0.94,Acu-Link.com,2013-04-28 01:13:00,
2013-04-27 21:28:00,50.0,47.8,29.94,West,270,0.0,-999.0,92,-99.99,,,0.94,Acu-Link.com,2013-04-28 01:28:00,
2013-04-27 21:43:00,50.0,47.8,29.95,SSW,202,0.0,-999.0,92,-99.99,,,0.94,Acu-Link.com,2013-04-28 01:43:00,
2013-04-27 21:59:00,50.0,47.8,29.94,NE,45,0.0,-999.0,92,-99.99,,,0.94,Acu-Link.com,2013-04-28 01:59:00,
2013-04-27 22:14:00,49.8,47.6,29.94,SSW,202,0.0,-999.0,92,-99.99,,,0.94,Acu-Link.com,2013-04-28 02:14:00,
2013-04-27 22:29:00,49.8,47.6,29.93,ENE,67,0.0,-999.0,92,-99.99,,,0.94,Acu-Link.com,2013-04-28 02:29:00,
2013-04-27 22:45:00,49.8,47.6,29.94,West,270,0.0,-999.0,92,-99.99,,,0.94,Acu-Link.com,2013-04-28 02:45:00,
2013-04-27 23:00:00,49.8,47.6,29.93,WNW,292,0.0,-999.0,92,-99.99,,,0.94,Acu-Link.com,2013-04-28 03:00:00,
2013-04-27 23:15:00,49.6,47.4,29.93,ENE,67,0.0,-999.0,92,-99.99,,,0.94,Acu-Link.com,2013-04-28 03:15:00,
2013-04-27 23:30:00,49.6,47.4,29.93,NNW,337,0.0,-999.0,92,-99.99,,,0.94,Acu-Link.com,2013-04-28 03:30:00,
2013-04-27 23:46:00,49.6,47.4,29.93,NW,315,0.0,-999.0,92,-99.99,,,0.94,Acu-Link.com,2013-04-28 03:46:00,